createdAt,value
2022-10-26T00:02:21.694Z,97.39
2022-10-26T00:04:48.309Z,97.62
2022-10-26T00:07:14.779Z,97.43
2022-10-26T00:09:41.298Z,97.48
2022-10-26T00:12:07.805Z,97.43
2022-10-26T00:14:34.271Z,97.22
2022-10-26T00:17:01.032Z,97.18
2022-10-26T00:19:27.591Z,97.00
2022-10-26T00:21:54.110Z,97.24
2022-10-26T00:24:20.568Z,97.34
2022-10-26T00:26:47.593Z,97.26
2022-10-26T00:29:14.147Z,97.47
2022-10-26T00:31:40.699Z,97.24
2022-10-26T00:34:07.158Z,97.56
2022-10-26T00:36:33.680Z,97.32
2022-10-26T00:39:00.171Z,97.57
2022-10-26T00:41:31.187Z,97.53
2022-10-26T00:43:58.149Z,97.49
2022-10-26T00:46:27.836Z,96.97
2022-10-26T00:48:58.292Z,97.42
2022-10-26T00:51:32.968Z,97.68
2022-10-26T00:54:03.115Z,97.31
2022-10-26T00:56:30.228Z,97.59
2022-10-26T00:59:01.616Z,97.37
2022-10-26T03:17:38.567Z,97.99
2022-10-26T03:20:05.571Z,98.20
2022-10-26T03:22:32.037Z,98.34
2022-10-26T03:24:58.541Z,98.52
2022-10-26T03:27:25.059Z,98.34
2022-10-26T03:29:51.524Z,98.02
2022-10-26T03:32:17.980Z,97.94
2022-10-26T03:34:44.466Z,98.19
2022-10-26T03:37:11.081Z,98.31
2022-10-26T03:39:37.650Z,98.07
2022-10-26T03:42:04.129Z,98.12
2022-10-26T03:44:31.178Z,97.92
2022-10-26T03:46:57.642Z,98.49
2022-10-26T03:49:24.139Z,97.69
2022-10-26T03:51:50.588Z,96.83
2022-10-26T03:54:17.065Z,96.97
2022-10-26T03:56:43.488Z,97.03
2022-10-26T03:59:09.939Z,97.12
2022-10-26T04:01:36.514Z,97.26
2022-10-26T04:04:03.113Z,96.87
2022-10-26T04:06:29.627Z,96.37
2022-10-26T04:09:01.968Z,96.38
2022-10-26T04:11:29.617Z,96.68
2022-10-26T04:13:59.580Z,96.73
2022-10-26T04:16:30.998Z,97.18
2022-10-26T04:19:00.000Z,96.90
2022-10-26T04:21:26.523Z,97.24
2022-10-26T04:23:53.003Z,97.34
2022-10-26T04:26:19.637Z,97.19
2022-10-26T04:28:46.192Z,97.34
2022-10-26T04:31:12.647Z,97.04
2022-10-26T04:33:39.112Z,97.23
2022-10-26T04:36:06.000Z,97.24
2022-10-26T04:38:32.444Z,97.54
2022-10-26T04:40:58.928Z,97.47
2022-10-26T04:43:25.378Z,97.26
2022-10-26T04:45:55.805Z,96.79
2022-10-26T04:48:22.587Z,96.62
2022-10-26T04:50:49.073Z,96.43
2022-10-26T04:53:15.940Z,96.69
2022-10-26T04:55:42.709Z,96.85
2022-10-26T04:58:09.181Z,97.30
2022-10-26T05:00:35.802Z,97.55
2022-10-26T05:03:04.692Z,97.47
2022-10-26T05:05:32.270Z,97.83
2022-10-26T05:07:59.036Z,97.76
2022-10-26T05:10:26.532Z,97.97
2022-10-26T05:12:54.409Z,98.41
2022-10-26T05:15:21.664Z,98.76
2022-10-26T05:17:56.804Z,98.98
2022-10-26T05:20:29.244Z,99.22
2022-10-26T05:23:01.186Z,98.80
2022-10-26T05:25:29.871Z,98.38
2022-10-26T05:28:00.876Z,97.84
2022-10-26T05:30:28.942Z,97.57
2022-10-26T05:33:00.156Z,97.57
2022-10-26T05:35:27.592Z,97.63
2022-10-26T05:37:54.681Z,97.54
2022-10-26T05:40:21.401Z,97.39
2022-10-26T05:42:48.412Z,97.44
2022-10-26T05:45:26.696Z,97.07
2022-10-26T05:47:54.603Z,97.39
2022-10-26T05:50:23.609Z,96.82
2022-10-26T05:52:51.129Z,96.87
2022-10-26T05:55:18.454Z,96.48
2022-10-26T05:57:45.314Z,96.49
2022-10-26T06:00:26.520Z,96.66
2022-10-26T06:03:04.189Z,97.00
2022-10-26T06:05:41.434Z,97.32
2022-10-26T06:08:11.577Z,97.56
2022-10-26T06:10:39.324Z,97.94
2022-10-26T06:13:06.232Z,97.89
2022-10-26T06:15:42.332Z,97.91
2022-10-26T06:18:42.278Z,97.85
2022-10-26T06:21:27.537Z,97.89
2022-10-26T06:24:08.452Z,97.17
2022-10-26T06:26:45.419Z,97.64
2022-10-26T06:29:17.943Z,97.40
2022-10-26T06:31:45.997Z,97.63
2022-10-26T06:34:21.384Z,97.77
2022-10-26T06:36:49.729Z,97.87
2022-10-26T06:39:16.980Z,97.80
2022-10-26T06:41:43.699Z,97.44
2022-10-26T06:44:15.732Z,97.79
2022-10-26T06:46:57.804Z,97.97
2022-10-26T06:49:35.253Z,98.64
2022-10-26T06:52:07.667Z,98.66
2022-10-26T06:54:52.181Z,98.47
2022-10-26T06:57:24.395Z,98.20
2022-10-26T06:59:57.571Z,98.80
2022-10-26T07:02:24.507Z,98.66
2022-10-26T07:04:51.059Z,99.08
2022-10-26T07:07:22.763Z,99.12
2022-10-26T07:09:50.331Z,99.08
2022-10-26T07:12:16.987Z,99.01
2022-10-26T07:14:43.451Z,99.19
2022-10-26T07:17:10.355Z,99.67
2022-10-26T07:19:36.857Z,99.78
2022-10-26T07:22:03.789Z,100.00
2022-10-26T07:24:30.857Z,99.70
2022-10-26T07:26:58.591Z,100.00
2022-10-26T07:29:26.880Z,100.00
2022-10-26T07:34:20.303Z,100.00
2022-10-26T07:36:46.815Z,100.00
2022-10-26T07:39:13.255Z,100.00
2022-10-26T07:41:39.770Z,100.00
2022-10-26T07:44:06.200Z,100.00
2022-10-26T07:46:32.668Z,100.00
2022-10-26T07:48:59.151Z,100.00
2022-10-26T07:51:25.790Z,100.00
2022-10-26T07:53:52.830Z,100.00
2022-10-26T07:56:19.328Z,100.00
2022-10-26T07:58:45.810Z,100.00
2022-10-26T08:01:14.592Z,100.00
2022-10-26T08:03:41.778Z,100.00
2022-10-26T08:06:09.539Z,100.00
2022-10-26T08:08:36.575Z,100.00
2022-10-26T08:11:03.688Z,100.00
2022-10-26T08:13:30.266Z,100.00
2022-10-26T08:15:58.493Z,100.00
2022-10-26T08:18:25.580Z,100.00
2022-10-26T08:20:52.142Z,100.00
2022-10-26T08:23:18.605Z,100.00
2022-10-26T08:25:45.086Z,100.00
2022-10-26T08:28:11.608Z,100.00
2022-10-26T08:30:38.064Z,100.00
2022-10-26T08:33:06.930Z,100.00
2022-10-26T08:35:34.232Z,100.00
2022-10-26T08:38:00.807Z,100.00
2022-10-26T08:40:31.360Z,100.00
2022-10-26T08:43:34.724Z,100.00
2022-10-26T08:46:09.489Z,100.00
2022-10-26T08:48:40.178Z,100.00
2022-10-26T08:51:14.195Z,100.00
2022-10-26T08:53:43.671Z,100.00
2022-10-26T08:56:26.396Z,100.00
2022-10-26T08:59:10.996Z,100.00
2022-10-26T09:01:37.648Z,100.00
2022-10-26T09:04:08.863Z,100.00
2022-10-26T09:07:05.743Z,100.00
2022-10-26T09:09:51.728Z,100.00
2022-10-26T09:12:55.819Z,100.00
2022-10-26T09:15:34.684Z,99.87
2022-10-26T09:18:03.843Z,99.84
2022-10-26T09:20:51.455Z,100.00
2022-10-26T09:23:34.683Z,99.93
2022-10-26T09:26:02.629Z,100.00
2022-10-26T09:28:34.672Z,99.83
2022-10-26T09:31:03.275Z,99.34
2022-10-26T09:33:34.712Z,99.47
2022-10-26T09:36:07.399Z,99.59
2022-10-26T09:38:40.762Z,98.45
2022-10-26T09:41:22.193Z,98.12
2022-10-26T09:43:51.268Z,97.44
2022-10-26T09:46:25.053Z,97.72
2022-10-26T09:48:56.041Z,97.74
2022-10-26T09:51:23.850Z,97.80
2022-10-26T09:53:50.332Z,97.16
2022-10-26T09:56:18.022Z,97.04
2022-10-26T09:58:53.975Z,96.94
2022-10-26T10:01:35.510Z,96.97
2022-10-26T10:04:28.091Z,95.73
2022-10-26T10:07:00.668Z,96.17
2022-10-26T10:09:27.223Z,96.17
2022-10-26T10:11:59.429Z,96.27
2022-10-26T10:14:27.166Z,95.61
2022-10-26T10:16:55.308Z,94.66
2022-10-26T10:19:33.437Z,93.23
2022-10-26T10:22:08.563Z,92.45
2022-10-26T10:24:37.104Z,92.56
2022-10-26T10:27:05.412Z,93.45
2022-10-26T10:29:34.477Z,90.45
2022-10-26T10:32:02.986Z,90.07
2022-10-26T10:34:31.288Z,91.24
2022-10-26T10:36:59.534Z,91.54
2022-10-26T10:39:41.845Z,91.20
2022-10-26T10:42:36.770Z,88.89
2022-10-26T10:45:05.476Z,89.21
2022-10-26T10:47:34.309Z,87.53
2022-10-26T10:50:02.337Z,88.37
2022-10-26T10:52:31.527Z,88.90
2022-10-26T10:55:13.260Z,88.80
2022-10-26T10:57:58.414Z,88.27
2022-10-26T11:00:25.894Z,86.18
2022-10-26T11:03:25.778Z,83.99
2022-10-26T11:05:52.566Z,84.92
2022-10-26T11:08:26.150Z,84.13
2022-10-26T11:11:00.957Z,82.91
2022-10-26T11:13:35.453Z,82.59
2022-10-26T11:16:05.665Z,81.03
2022-10-26T11:18:54.167Z,79.97
2022-10-26T11:21:33.552Z,80.62
2022-10-26T11:24:11.284Z,80.43
2022-10-26T11:26:48.594Z,79.09
2022-10-26T11:29:30.964Z,79.72
2022-10-26T11:32:08.468Z,78.05
2022-10-26T11:34:49.783Z,79.05
2022-10-26T11:37:45.714Z,78.69
2022-10-26T11:40:27.481Z,78.94
2022-10-26T11:43:01.938Z,78.36
2022-10-26T11:45:32.469Z,76.74
2022-10-26T11:48:24.623Z,75.53
2022-10-26T11:50:54.366Z,74.88
2022-10-26T11:53:42.674Z,75.65
2022-10-26T11:56:38.472Z,75.84
2022-10-26T11:59:06.482Z,75.94
2022-10-26T12:01:34.014Z,77.72
2022-10-26T12:04:01.949Z,74.81
2022-10-26T12:06:32.557Z,74.74
2022-10-26T12:09:13.022Z,73.74
2022-10-26T12:11:42.214Z,74.63
2022-10-26T12:14:41.997Z,75.43
2022-10-26T12:17:36.770Z,75.47
2022-10-26T12:20:24.118Z,74.92
2022-10-26T12:22:50.977Z,76.22
2022-10-26T12:25:17.510Z,75.44
2022-10-26T12:27:43.953Z,76.14
2022-10-26T12:30:19.653Z,75.97
2022-10-26T12:32:48.328Z,75.58
2022-10-26T12:35:35.891Z,75.32
2022-10-26T12:38:24.138Z,75.62
2022-10-26T12:41:20.793Z,76.02
2022-10-26T12:43:48.032Z,75.98
2022-10-26T12:46:14.464Z,74.65
2022-10-26T12:48:43.475Z,75.74
2022-10-26T12:51:22.290Z,73.16
2022-10-26T12:53:58.259Z,74.72
2022-10-26T12:56:44.390Z,76.07
2022-10-26T12:59:18.089Z,75.97
2022-10-26T13:02:11.017Z,74.33
2022-10-26T13:05:07.344Z,75.00
2022-10-26T13:07:37.851Z,75.36
2022-10-26T13:10:12.329Z,75.33
2022-10-26T13:12:55.576Z,75.61
2022-10-26T13:15:53.171Z,74.43
2022-10-26T13:18:21.930Z,74.71
2022-10-26T13:21:13.509Z,73.58
2022-10-26T13:23:42.802Z,74.39
2022-10-26T13:26:12.923Z,74.02
2022-10-26T13:28:39.572Z,73.91
2022-10-26T13:31:10.515Z,75.04
2022-10-26T13:33:40.802Z,75.29
2022-10-26T13:36:29.517Z,74.90
2022-10-26T13:39:01.380Z,74.59
2022-10-26T13:41:37.075Z,74.29
2022-10-26T13:44:07.047Z,73.72
2022-10-26T13:46:40.019Z,74.53
2022-10-26T13:49:18.041Z,74.76
2022-10-26T13:51:49.284Z,76.12
2022-10-26T13:54:28.483Z,75.32
2022-10-26T13:57:05.735Z,75.69
2022-10-26T13:59:37.758Z,74.68
2022-10-26T14:02:30.532Z,75.39
2022-10-26T14:05:02.150Z,74.61
2022-10-26T14:07:44.037Z,74.54
2022-10-26T14:10:31.629Z,74.86
2022-10-26T14:12:58.674Z,75.33
2022-10-26T14:15:28.555Z,75.22
2022-10-26T14:17:55.631Z,75.54
2022-10-26T14:20:24.615Z,75.78
2022-10-26T14:22:51.348Z,75.89
2022-10-26T14:25:42.621Z,76.32
2022-10-26T14:28:21.979Z,76.48
2022-10-26T14:30:48.581Z,77.22
2022-10-26T14:33:20.594Z,77.22
2022-10-26T14:35:47.803Z,77.37
2022-10-26T14:38:26.506Z,77.25
2022-10-26T14:40:56.847Z,77.55
2022-10-26T14:43:25.160Z,77.63
2022-10-26T14:45:53.862Z,78.03
2022-10-26T14:48:32.559Z,78.22
2022-10-26T14:51:00.546Z,78.49
2022-10-26T14:53:35.939Z,78.87
2022-10-26T14:56:04.385Z,78.84
2022-10-26T14:58:32.249Z,79.18
2022-10-26T15:01:23.778Z,79.32
2022-10-26T15:03:55.387Z,79.40
2022-10-26T15:06:29.723Z,79.64
2022-10-26T15:09:01.231Z,80.37
2022-10-26T15:11:28.857Z,80.93
2022-10-26T15:13:57.375Z,81.03
2022-10-26T15:16:27.774Z,81.84
2022-10-26T15:19:01.183Z,82.09
2022-10-26T15:21:32.142Z,82.16
2022-10-26T15:23:59.543Z,82.24
2022-10-26T15:26:26.299Z,82.52
2022-10-26T15:28:54.075Z,82.71
2022-10-26T15:31:20.488Z,82.75
2022-10-26T15:33:53.096Z,82.74
2022-10-26T15:36:21.290Z,83.11
2022-10-26T15:38:48.375Z,83.74
2022-10-26T15:41:28.723Z,83.99
2022-10-26T15:43:57.895Z,84.47
2022-10-26T15:46:34.921Z,84.53
2022-10-26T15:49:04.608Z,84.84
2022-10-26T15:51:31.381Z,85.27
2022-10-26T15:53:58.945Z,85.09
2022-10-26T15:56:26.502Z,85.65
2022-10-26T15:58:54.637Z,85.98
2022-10-26T16:01:23.969Z,86.04
2022-10-26T16:03:51.561Z,86.22
2022-10-26T16:06:35.390Z,86.31
2022-10-26T16:09:16.766Z,86.42
2022-10-26T16:11:44.545Z,86.60
2022-10-26T16:14:11.312Z,86.64
2022-10-26T16:16:37.878Z,86.87
2022-10-26T16:19:29.698Z,87.31
2022-10-26T16:21:52.241Z,87.24
2022-10-26T16:24:18.969Z,87.69
2022-10-26T16:26:45.845Z,87.79
2022-10-26T16:29:12.297Z,88.24
2022-10-26T16:31:38.795Z,88.85
2022-10-26T16:34:05.348Z,88.87
2022-10-26T16:36:34.947Z,88.94
2022-10-26T16:41:28.936Z,88.90
2022-10-26T16:43:56.080Z,89.39
2022-10-26T16:46:22.549Z,90.37
2022-10-26T16:48:50.064Z,90.19
2022-10-26T16:51:22.596Z,89.70
2022-10-26T16:53:51.666Z,90.45
2022-10-26T16:56:21.135Z,90.89
2022-10-26T16:58:47.720Z,91.13
2022-10-26T17:01:18.949Z,91.09
2022-10-26T17:03:47.527Z,91.29
2022-10-26T17:06:16.602Z,91.13
2022-10-26T17:08:43.156Z,91.47
2022-10-26T17:11:15.811Z,91.27
2022-10-26T17:13:43.809Z,91.44
2022-10-26T17:16:18.623Z,91.53
2022-10-26T17:18:47.178Z,91.65
2022-10-26T17:21:15.328Z,91.82
2022-10-26T17:23:43.035Z,91.71
2022-10-26T17:26:11.623Z,91.72
2022-10-26T17:28:38.499Z,91.67
2022-10-26T17:31:11.782Z,91.80
2022-10-26T17:33:39.604Z,91.70
2022-10-26T17:36:07.806Z,91.80
2022-10-26T17:38:37.172Z,91.86
2022-10-26T17:41:09.383Z,91.80
2022-10-26T17:43:38.003Z,92.04
2022-10-26T17:46:07.493Z,92.02
2022-10-26T17:48:34.006Z,91.99
2022-10-26T17:51:01.957Z,92.09
2022-10-26T17:53:29.467Z,92.31
2022-10-26T17:56:10.646Z,92.04
2022-10-26T17:58:37.281Z,91.80
2022-10-26T18:01:10.033Z,92.01
2022-10-26T18:03:37.564Z,92.12
2022-10-26T18:06:07.495Z,92.45
2022-10-26T18:08:35.008Z,92.55
2022-10-26T18:11:01.691Z,92.30
2022-10-26T18:13:31.335Z,92.64
2022-10-26T18:16:05.172Z,92.84
2022-10-26T18:18:32.632Z,92.89
2022-10-26T18:21:10.538Z,92.99
2022-10-26T18:23:40.392Z,93.22
2022-10-26T18:26:14.071Z,92.92
2022-10-26T18:28:41.399Z,92.99
2022-10-26T18:31:10.743Z,93.12
2022-10-26T18:33:37.901Z,93.02
2022-10-26T18:36:09.419Z,93.04
2022-10-26T18:38:36.665Z,93.05
2022-10-26T18:41:03.776Z,92.53
2022-10-26T18:43:30.472Z,92.65
2022-10-26T18:46:23.645Z,92.46
2022-10-26T18:48:54.280Z,92.49
2022-10-26T18:51:26.033Z,92.51
2022-10-26T18:53:52.550Z,92.49
2022-10-26T18:56:21.363Z,92.50
2022-10-26T18:58:53.112Z,92.56
2022-10-26T19:01:21.276Z,92.52
2022-10-26T19:03:48.627Z,92.59
2022-10-26T19:06:27.068Z,92.57
2022-10-26T19:08:54.661Z,92.32
2022-10-26T19:11:24.257Z,92.42
2022-10-26T19:13:52.810Z,92.17
2022-10-26T19:16:40.606Z,92.24
2022-10-26T19:19:09.037Z,92.47
2022-10-26T19:21:35.594Z,92.17
2022-10-26T19:24:02.388Z,92.44
2022-10-26T19:26:34.631Z,92.33
2022-10-26T19:29:06.223Z,92.17
2022-10-26T19:31:34.118Z,92.15
2022-10-26T19:34:01.070Z,92.12
2022-10-26T19:36:28.295Z,91.89
2022-10-26T19:38:56.007Z,92.04
2022-10-26T19:41:23.992Z,91.85
2022-10-26T19:43:50.791Z,92.07
2022-10-26T19:46:22.752Z,92.27
2022-10-26T19:48:50.912Z,92.34
2022-10-26T19:51:17.873Z,92.82
2022-10-26T19:53:44.644Z,92.62
2022-10-26T19:56:13.360Z,93.05
2022-10-26T19:58:44.607Z,92.97
2022-10-26T20:01:13.696Z,93.02
2022-10-26T20:03:46.415Z,92.84
2022-10-26T20:06:15.766Z,92.84
2022-10-26T20:08:45.763Z,92.95
2022-10-26T20:12:09.965Z,93.04
2022-10-26T20:14:42.696Z,93.51
2022-10-26T20:17:09.326Z,93.51
2022-10-26T20:19:35.974Z,93.44
2022-10-26T20:22:02.501Z,93.98
2022-10-26T20:24:28.960Z,94.10
2022-10-26T20:26:55.410Z,93.89
2022-10-26T20:29:21.895Z,93.87
2022-10-26T20:31:50.587Z,93.72
2022-10-26T20:34:19.142Z,94.06
2022-10-26T20:36:45.702Z,94.57
2022-10-26T20:39:12.540Z,94.22
2022-10-26T20:41:43.079Z,94.49
2022-10-26T20:44:22.390Z,94.34
2022-10-26T20:46:49.195Z,94.58
2022-10-26T20:49:15.982Z,94.66
2022-10-26T20:52:18.973Z,94.82
2022-10-26T20:54:52.019Z,95.50
2022-10-26T20:57:22.769Z,95.38
2022-10-26T20:59:55.126Z,95.06
2022-10-26T21:02:22.528Z,95.50
2022-10-26T21:04:49.129Z,95.57
2022-10-26T21:07:16.624Z,95.78
2022-10-26T21:09:43.116Z,96.00
2022-10-26T21:12:09.574Z,95.78
2022-10-26T21:14:40.724Z,95.86
2022-10-26T21:17:08.203Z,96.04
2022-10-26T21:19:34.712Z,95.67
2022-10-26T21:22:01.196Z,95.62
2022-10-26T21:24:27.827Z,95.52
2022-10-26T21:26:54.920Z,95.94
2022-10-26T21:29:21.366Z,95.82
2022-10-26T21:31:47.865Z,96.09
2022-10-26T21:34:15.464Z,96.03
2022-10-26T21:36:41.940Z,96.21
2022-10-26T21:39:08.418Z,95.95
2022-10-26T21:41:37.163Z,96.37
2022-10-26T21:44:32.661Z,96.42
2022-10-26T21:47:03.445Z,97.12
2022-10-26T21:49:30.008Z,96.97
2022-10-26T21:51:56.558Z,96.94
2022-10-26T21:54:23.023Z,96.98
2022-10-26T21:56:49.529Z,96.87
2022-10-26T21:59:16.112Z,96.49
2022-10-26T22:01:44.807Z,96.59
2022-10-26T22:04:11.447Z,96.85
2022-10-26T22:06:37.983Z,96.43
2022-10-26T22:09:06.678Z,96.44
2022-10-26T22:11:33.837Z,96.14
2022-10-26T22:14:00.644Z,96.35
2022-10-26T22:16:29.785Z,96.37
2022-10-26T22:19:02.249Z,96.39
2022-10-26T22:21:33.613Z,96.27
2022-10-26T22:24:00.095Z,96.42
2022-10-26T22:26:26.949Z,96.57
2022-10-26T22:28:57.682Z,96.47
2022-10-26T22:34:03.275Z,96.50
2022-10-26T22:36:33.055Z,96.35
2022-10-26T22:38:59.510Z,96.42
2022-10-26T22:41:26.541Z,96.51
2022-10-26T22:43:53.059Z,95.83
2022-10-26T22:46:21.920Z,96.04
2022-10-26T22:48:56.499Z,96.04
2022-10-26T22:51:24.893Z,96.10
2022-10-26T22:53:53.208Z,96.14
2022-10-26T22:56:20.417Z,96.42
2022-10-26T22:58:47.180Z,97.08
2022-10-26T23:01:16.485Z,97.62
2022-10-26T23:03:43.562Z,97.57
2022-10-26T23:06:12.270Z,97.62
2022-10-26T23:08:38.717Z,97.79
2022-10-26T23:11:08.078Z,97.35
2022-10-26T23:13:34.712Z,97.12
2022-10-26T23:16:19.339Z,96.86
2022-10-26T23:18:46.267Z,96.99
2022-10-26T23:21:13.694Z,97.11
2022-10-26T23:23:41.172Z,97.39
2022-10-26T23:26:13.786Z,97.27
2022-10-26T23:28:41.695Z,96.87
2022-10-26T23:31:12.856Z,96.97
2022-10-26T23:33:39.315Z,96.44
2022-10-26T23:36:06.060Z,96.28
2022-10-26T23:38:32.711Z,96.32
2022-10-26T23:40:59.880Z,96.47
2022-10-26T23:43:27.766Z,95.99
2022-10-26T23:45:55.702Z,96.09
2022-10-26T23:48:22.519Z,96.17
2022-10-26T23:50:50.506Z,96.32
2022-10-26T23:53:19.192Z,96.32
2022-10-26T23:55:46.911Z,96.17
2022-10-26T23:58:14.036Z,96.14
